Time;durP1;ratioP1;P1;durP2;ratioP2;P2;SDS_P1;SDS_P2;PMS_P1;PMS_P2;Temp;Humidity;BMP_temperature;BMP_pressure;BME280_temperature;BME280_humidity;BME280_pressure;Samples;Min_cycle;Max_cycle;Signal;HPM_P1;HPM_P2
2021/05/26 00:01:05;;;;;;;5.55;3.50;;;15.20;99.90;;;;;;4156071;28;20535;-67
2021/05/26 00:03:06;;;;;;;8.03;5.20;;;15.20;99.90;;;;;;4156662;28;20045;-66
2021/05/26 00:05:08;;;;;;;5.93;4.90;;;15.20;99.90;;;;;;4158368;28;20115;-68
2021/05/26 00:07:09;;;;;;;2.90;2.58;;;15.10;99.90;;;;;;4156928;28;20095;-66
2021/05/26 00:09:10;;;;;;;2.45;2.20;;;15.10;99.90;;;;;;4156895;28;20080;-67
2021/05/26 00:11:14;;;;;;;4.73;2.67;;;15.10;99.90;;;;;;4157529;28;20030;-67
2021/05/26 00:13:15;;;;;;;3.55;2.67;;;15.10;99.90;;;;;;4156691;28;20083;-69
2021/05/26 00:15:16;;;;;;;4.97;2.15;;;15.20;99.90;;;;;;4157208;28;20037;-67
2021/05/26 00:17:18;;;;;;;3.10;2.08;;;15.20;99.90;;;;;;4155975;28;20083;-67
2021/05/26 00:19:19;;;;;;;2.30;1.60;;;15.20;99.90;;;;;;4157792;28;20470;-68
2021/05/26 00:21:20;;;;;;;1.85;1.40;;;15.30;99.90;;;;;;4156226;28;20025;-67
2021/05/26 00:23:22;;;;;;;1.50;1.40;;;15.20;99.90;;;;;;4157482;28;21111;-66
2021/05/26 00:25:23;;;;;;;2.33;1.15;;;15.30;99.90;;;;;;4154223;28;20469;-64
2021/05/26 00:27:24;;;;;;;2.17;1.33;;;15.30;99.90;;;;;;4157475;28;20063;-68
2021/05/26 00:29:25;;;;;;;1.77;1.10;;;15.20;99.90;;;;;;4156338;28;20486;-68
2021/05/26 00:31:28;;;;;;;1.30;0.90;;;15.20;99.90;;;;;;4157513;28;20041;-64
2021/05/26 00:33:29;;;;;;;1.25;0.60;;;15.10;99.90;;;;;;4155546;28;20037;-66
2021/05/26 00:35:30;;;;;;;1.15;0.90;;;15.10;99.90;;;;;;4157064;28;20103;-66
2021/05/26 00:37:32;;;;;;;2.60;0.90;;;15.10;99.90;;;;;;4156213;28;20562;-69
2021/05/26 00:39:33;;;;;;;1.27;0.90;;;15.10;99.90;;;;;;4154875;28;20920;-66
2021/05/26 00:41:34;;;;;;;1.30;0.88;;;15.00;99.90;;;;;;4156272;28;20092;-66
2021/05/26 00:43:36;;;;;;;1.70;0.82;;;15.00;99.90;;;;;;4156184;28;20030;-66
2021/05/26 00:45:37;;;;;;;2.47;0.70;;;15.00;99.90;;;;;;4156786;28;20493;-67
2021/05/26 00:47:41;;;;;;;1.17;0.88;;;15.00;99.90;;;;;;4155582;28;20029;-70
2021/05/26 00:49:42;;;;;;;3.03;1.03;;;15.00;99.90;;;;;;4156913;28;20079;-66
2021/05/26 00:51:44;;;;;;;2.80;1.20;;;15.00;99.90;;;;;;4155920;28;20434;-68
2021/05/26 00:53:45;;;;;;;0.97;0.87;;;15.00;99.90;;;;;;4157073;28;20091;-66
2021/05/26 00:55:47;;;;;;;2.33;1.10;;;14.90;99.90;;;;;;4155678;28;20789;-66
2021/05/26 00:57:49;;;;;;;3.75;0.98;;;15.00;99.90;;;;;;4156795;28;20083;-66
2021/05/26 00:59:50;;;;;;;2.60;1.40;;;14.90;99.90;;;;;;4156090;28;20091;-69
2021/05/26 01:01:51;;;;;;;1.70;1.60;;;14.90;99.90;;;;;;4156849;28;20033;-68
2021/05/26 01:03:55;;;;;;;2.07;1.97;;;14.80;99.90;;;;;;4155292;28;20040;-67
2021/05/26 01:05:57;;;;;;;2.73;1.53;;;14.70;99.90;;;;;;4156575;28;20049;-65
2021/05/26 01:07:58;;;;;;;2.43;1.27;;;14.70;99.90;;;;;;4155617;28;20481;-66
2021/05/26 01:10:01;;;;;;;3.10;2.00;;;14.60;99.90;;;;;;4155840;28;20076;-65
2021/05/26 01:12:03;;;;;;;4.20;2.40;;;14.60;99.90;;;;;;4156143;28;20025;-66
2021/05/26 01:14:04;;;;;;;0.90;0.90;;;14.60;99.90;;;;;;4155468;28;20103;-67
2021/05/26 01:16:06;;;;;;;3.80;0.90;;;14.60;99.90;;;;;;4155936;28;20080;-68
2021/05/26 01:18:25;;;;;;;1.63;0.87;;;14.60;99.90;;;;;;4155628;28;20087;-67
2021/05/26 01:20:29;;;;;;;2.17;1.30;;;14.50;99.90;;;;;;4156067;28;20029;-68
2021/05/26 01:22:30;;;;;;;1.83;1.63;;;14.60;99.90;;;;;;4155432;28;20313;-67
2021/05/26 01:24:31;;;;;;;4.27;1.70;;;14.60;99.90;;;;;;4155744;28;20099;-67
2021/05/26 01:26:33;;;;;;;1.93;0.90;;;14.50;99.90;;;;;;4155125;28;20041;-65
2021/05/26 01:28:35;;;;;;;2.57;0.80;;;14.60;99.90;;;;;;4156825;28;20228;-68
2021/05/26 01:30:37;;;;;;;1.20;0.77;;;14.60;99.90;;;;;;4155708;28;20095;-66
2021/05/26 01:32:42;;;;;;;4.57;0.90;;;14.60;99.90;;;;;;4156552;28;20557;-65
2021/05/26 01:34:43;;;;;;;1.90;0.50;;;14.60;99.90;;;;;;4155145;28;20031;-67
2021/05/26 01:36:44;;;;;;;1.43;0.63;;;14.60;99.90;;;;;;4156768;28;20033;-67
2021/05/26 01:38:45;;;;;;;1.43;0.60;;;14.60;99.90;;;;;;4155264;28;21019;-66
2021/05/26 01:40:47;;;;;;;1.50;0.80;;;14.60;99.90;;;;;;4154603;28;20088;-66
2021/05/26 01:42:49;;;;;;;1.03;0.80;;;14.50;99.90;;;;;;4154884;28;20080;-66
2021/05/26 01:44:50;;;;;;;5.10;1.53;;;14.50;99.90;;;;;;4156150;28;20045;-68
2021/05/26 01:46:51;;;;;;;1.13;0.83;;;14.50;99.90;;;;;;4155479;28;20485;-65
2021/05/26 01:48:52;;;;;;;1.07;0.97;;;14.50;99.90;;;;;;4155645;28;20482;-66
2021/05/26 01:50:53;;;;;;;1.30;1.10;;;14.50;99.90;;;;;;4155890;28;20806;-67
2021/05/26 01:53:00;;;;;;;3.60;1.23;;;14.50;99.90;;;;;;4156428;28;20087;-68
2021/05/26 01:55:01;;;;;;;2.30;1.37;;;14.50;99.90;;;;;;4158877;28;20080;-67
2021/05/26 01:57:03;;;;;;;2.30;1.40;;;14.50;99.90;;;;;;4158455;28;20037;-66
2021/05/26 01:59:04;;;;;;;2.40;1.60;;;14.50;99.90;;;;;;4159306;28;20041;-64
2021/05/26 02:01:05;;;;;;;5.43;2.00;;;14.50;99.90;;;;;;4158805;28;20100;-67
2021/05/26 02:03:07;;;;;;;3.63;2.80;;;14.50;99.90;;;;;;4159722;28;20033;-65
2021/05/26 02:05:09;;;;;;;4.93;2.67;;;14.50;99.90;;;;;;4158006;28;20493;-65
2021/05/26 02:07:12;;;;;;;3.23;2.50;;;14.50;99.90;;;;;;4159614;28;20056;-68
2021/05/26 02:09:13;;;;;;;5.50;3.10;;;14.50;99.90;;;;;;4158282;28;20540;-69
2021/05/26 02:13:34;;;;;;;2.40;1.70;;;14.50;99.90;;;;;;4158083;28;20037;-68
2021/05/26 02:15:36;;;;;;;2.17;1.97;;;14.40;99.90;;;;;;4159003;28;20037;-69
2021/05/26 02:17:37;;;;;;;2.20;1.80;;;14.40;99.90;;;;;;4158234;28;20045;-68
2021/05/26 02:19:38;;;;;;;2.37;1.80;;;14.40;99.90;;;;;;4158907;28;20029;-66
2021/05/26 02:21:40;;;;;;;11.23;2.87;;;14.30;99.90;;;;;;4158116;28;20107;-70
2021/05/26 02:23:41;;;;;;;3.10;2.23;;;14.20;99.90;;;;;;4158201;28;20903;-66
2021/05/26 02:25:42;;;;;;;6.43;3.40;;;14.10;99.90;;;;;;4157942;28;20557;-66
2021/05/26 02:27:43;;;;;;;5.07;3.57;;;14.00;99.90;;;;;;4158266;28;20045;-67
2021/05/26 02:29:44;;;;;;;4.23;3.43;;;14.00;99.90;;;;;;4158961;28;20587;-67
2021/05/26 02:31:46;;;;;;;6.27;3.30;;;14.00;99.90;;;;;;4156760;28;20050;-65
2021/05/26 02:33:47;;;;;;;3.80;2.00;;;13.90;99.90;;;;;;4158734;28;20085;-65
2021/05/26 02:35:48;;;;;;;10.40;3.67;;;13.80;99.90;;;;;;4157720;28;20099;-68
2021/05/26 02:37:49;;;;;;;12.90;2.30;;;13.70;99.90;;;;;;4158764;28;20033;-68
2021/05/26 02:39:50;;;;;;;8.20;1.97;;;13.60;99.90;;;;;;4157638;28;20041;-66
2021/05/26 02:41:51;;;;;;;6.30;2.17;;;13.50;99.90;;;;;;4158639;28;20041;-64
2021/05/26 02:43:52;;;;;;;3.47;2.10;;;13.30;99.90;;;;;;4157139;28;20466;-69
2021/05/26 02:45:53;;;;;;;17.77;2.80;;;13.30;99.90;;;;;;4158445;28;20114;-68
2021/05/26 02:47:55;;;;;;;12.77;3.20;;;13.20;99.90;;;;;;4157457;28;20424;-69
2021/05/26 02:49:56;;;;;;;12.37;3.37;;;13.20;99.90;;;;;;4158061;28;20478;-65
2021/05/26 02:51:57;;;;;;;16.97;2.97;;;13.10;99.90;;;;;;4157924;28;20029;-68
2021/05/26 02:53:59;;;;;;;5.73;2.00;;;13.10;99.90;;;;;;4156145;28;20164;-68
2021/05/26 02:56:00;;;;;;;2.77;2.30;;;13.00;99.90;;;;;;4155853;28;20083;-68
2021/05/26 02:58:01;;;;;;;7.47;1.90;;;13.00;99.90;;;;;;4157457;28;20162;-66
2021/05/26 03:00:05;;;;;;;4.87;2.90;;;13.00;99.90;;;;;;4158329;28;20424;-65
2021/05/26 03:02:06;;;;;;;7.63;3.00;;;13.00;99.90;;;;;;4158035;28;20034;-66
2021/05/26 03:04:07;;;;;;;6.33;1.93;;;13.00;99.90;;;;;;4157698;28;20033;-67
2021/05/26 03:06:08;;;;;;;6.13;2.10;;;13.00;99.90;;;;;;4157110;28;20053;-69
2021/05/26 03:08:10;;;;;;;3.47;1.90;;;13.00;99.90;;;;;;4157807;28;20041;-70
2021/05/26 03:10:13;;;;;;;3.27;1.20;;;13.00;99.90;;;;;;4157017;28;20586;-68
2021/05/26 03:12:14;;;;;;;5.50;2.00;;;13.00;99.90;;;;;;4158035;28;20030;-67
2021/05/26 03:14:15;;;;;;;4.70;2.43;;;12.90;99.90;;;;;;4157343;28;20029;-67
2021/05/26 03:16:16;;;;;;;4.00;1.50;;;12.90;99.90;;;;;;4157832;28;20045;-63
2021/05/26 03:18:19;;;;;;;1.53;0.63;;;12.90;99.90;;;;;;4157231;28;20079;-64
2021/05/26 03:20:20;;;;;;;3.10;1.00;;;12.90;99.90;;;;;;4158083;28;20420;-64
2021/05/26 03:22:22;;;;;;;1.97;0.90;;;12.90;99.90;;;;;;4157352;28;20433;-67
2021/05/26 03:24:23;;;;;;;1.10;0.80;;;13.00;99.90;;;;;;4157576;28;20056;-67
2021/05/26 03:26:24;;;;;;;2.30;0.60;;;13.00;99.90;;;;;;4157122;28;20809;-65
2021/05/26 03:28:25;;;;;;;2.90;1.00;;;13.10;99.90;;;;;;4157885;28;20084;-67
2021/05/26 03:30:27;;;;;;;0.50;0.50;;;13.00;99.90;;;;;;4157419;28;20861;-68
2021/05/26 03:32:28;;;;;;;1.67;0.70;;;13.00;99.90;;;;;;4157703;28;20136;-69
2021/05/26 03:34:29;;;;;;;1.90;0.87;;;13.00;99.90;;;;;;4157358;28;20076;-66
2021/05/26 03:36:32;;;;;;;3.00;0.63;;;12.90;99.90;;;;;;4156680;28;20083;-69
2021/05/26 03:38:33;;;;;;;1.53;0.60;;;12.90;99.90;;;;;;4157083;28;20033;-69
2021/05/26 03:40:35;;;;;;;4.70;1.00;;;12.80;99.90;;;;;;4156776;28;20591;-65
2021/05/26 03:42:38;;;;;;;0.90;0.40;;;12.80;99.90;;;;;;4157259;28;20930;-67
2021/05/26 03:44:39;;;;;;;4.23;0.80;;;12.70;99.90;;;;;;4156378;28;20571;-69
2021/05/26 03:46:42;;;;;;;6.97;0.73;;;12.70;99.90;;;;;;4157491;28;20045;-68
2021/05/26 03:48:43;;;;;;;1.77;0.63;;;12.70;99.90;;;;;;4156425;28;20045;-66
2021/05/26 03:50:44;;;;;;;3.03;0.70;;;12.70;99.90;;;;;;4157459;28;20623;-66
2021/05/26 03:52:47;;;;;;;3.70;0.80;;;12.70;99.90;;;;;;4156883;28;20033;-64
2021/05/26 03:54:48;;;;;;;2.03;0.70;;;12.70;99.90;;;;;;4156905;28;20087;-67
2021/05/26 03:56:49;;;;;;;2.17;1.00;;;12.70;99.90;;;;;;4156814;28;20091;-65
2021/05/26 03:58:51;;;;;;;3.37;0.70;;;12.80;99.90;;;;;;4156905;28;20071;-68
2021/05/26 04:00:52;;;;;;;3.07;1.07;;;12.80;99.90;;;;;;4156342;28;20033;-65
2021/05/26 04:02:53;;;;;;;1.70;0.70;;;12.80;99.90;;;;;;4156601;28;20056;-67
2021/05/26 04:04:54;;;;;;;6.67;1.27;;;12.90;99.90;;;;;;4157003;28;20095;-65
2021/05/26 04:06:55;;;;;;;4.47;1.03;;;12.90;99.90;;;;;;4155917;28;20053;-67
2021/05/26 04:08:56;;;;;;;2.17;0.77;;;12.90;99.90;;;;;;4156473;28;20118;-66
2021/05/26 04:10:57;;;;;;;8.77;1.47;;;13.00;99.90;;;;;;4155933;28;20029;-64
2021/05/26 04:12:58;;;;;;;1.90;1.00;;;13.10;99.90;;;;;;4156497;28;20579;-67
2021/05/26 04:15:00;;;;;;;4.20;1.03;;;13.20;99.90;;;;;;4155630;28;20075;-65
2021/05/26 04:17:01;;;;;;;4.83;1.00;;;13.40;99.90;;;;;;4142596;28;20560;-66
2021/05/26 04:19:02;;;;;;;3.37;0.90;;;14.30;99.90;;;;;;4139658;28;20092;-67
2021/05/26 04:21:03;;;;;;;3.00;0.80;;;14.60;99.90;;;;;;4140602;28;20533;-65
2021/05/26 04:23:05;;;;;;;0.80;0.67;;;15.30;99.90;;;;;;4139919;28;20037;-66
2021/05/26 04:25:07;;;;;;;4.37;0.80;;;16.00;99.90;;;;;;4154689;28;20049;-66
2021/05/26 04:27:08;;;;;;;5.77;1.00;;;16.80;99.90;;;;;;4156181;28;20033;-67
2021/05/26 04:29:09;;;;;;;5.00;0.80;;;17.30;99.90;;;;;;4151972;28;20037;-64
2021/05/26 04:31:12;;;;;;;2.17;0.77;;;17.10;99.90;;;;;;4155314;28;20377;-64
2021/05/26 04:33:14;;;;;;;3.97;0.60;;;17.00;99.90;;;;;;4153584;28;20095;-67
2021/05/26 04:35:16;;;;;;;4.05;0.60;;;17.00;99.90;;;;;;4156071;28;20080;-68
2021/05/26 04:37:17;;;;;;;3.17;0.65;;;16.70;99.90;;;;;;4155974;28;20052;-66
2021/05/26 04:39:18;;;;;;;3.88;0.70;;;17.20;99.90;;;;;;4156345;28;20071;-67
2021/05/26 04:41:19;;;;;;;6.95;1.17;;;17.60;99.90;;;;;;4154836;28;20139;-63
2021/05/26 04:43:21;;;;;;;1.33;0.60;;;18.00;99.90;;;;;;4156300;28;20059;-62
2021/05/26 04:45:22;;;;;;;4.22;2.38;;;17.80;99.90;;;;;;4154813;28;20119;-63
2021/05/26 04:47:23;;;;;;;6.68;2.88;;;17.40;99.90;;;;;;4155864;28;20029;-63
2021/05/26 04:49:24;;;;;;;3.00;1.25;;;17.60;99.90;;;;;;4155116;28;20503;-68
2021/05/26 04:51:25;;;;;;;1.02;0.70;;;17.70;99.90;;;;;;4156164;28;20095;-65
2021/05/26 04:53:26;;;;;;;2.70;1.00;;;18.20;99.90;;;;;;4155542;28;20038;-67
2021/05/26 04:55:27;;;;;;;8.23;1.77;;;18.50;99.90;;;;;;4156482;28;20037;-68
2021/05/26 04:57:28;;;;;;;6.45;1.52;;;18.50;99.90;;;;;;4155807;28;20029;-66
2021/05/26 04:59:29;;;;;;;14.32;1.55;;;18.50;99.90;;;;;;4156269;28;20788;-68
2021/05/26 05:01:31;;;;;;;6.03;0.88;;;18.40;99.90;;;;;;4155606;28;20056;-69
2021/05/26 05:03:33;;;;;;;4.10;0.95;;;18.80;99.90;;;;;;4155576;28;20855;-69
2021/05/26 05:05:35;;;;;;;6.43;0.80;;;19.20;99.90;;;;;;4155118;28;20577;-67
2021/05/26 05:07:36;;;;;;;8.52;0.93;;;19.40;99.70;;;;;;4155093;28;20099;-66
2021/05/26 05:09:37;;;;;;;3.05;1.05;;;19.80;98.50;;;;;;4156055;28;20068;-70
2021/05/26 05:11:39;;;;;;;6.38;1.60;;;19.70;98.10;;;;;;4155100;28;20041;-68
2021/05/26 05:13:40;;;;;;;4.65;1.00;;;18.90;97.10;;;;;;4156266;28;20022;-68
2021/05/26 05:15:41;;;;;;;5.65;1.30;;;18.60;98.00;;;;;;4155275;28;20448;-68
2021/05/26 05:17:46;;;;;;;3.35;0.80;;;18.40;98.10;;;;;;4156127;28;20056;-67
2021/05/26 05:19:48;;;;;;;5.32;1.38;;;18.30;98.70;;;;;;4154704;28;20017;-70
2021/05/26 05:21:49;;;;;;;2.45;1.08;;;18.00;99.00;;;;;;4156089;28;20460;-67
2021/05/26 05:23:50;;;;;;;2.55;0.85;;;17.80;99.60;;;;;;4154781;28;20026;-68
2021/05/26 05:25:51;;;;;;;3.25;1.27;;;17.40;99.90;;;;;;4155806;28;20053;-65
2021/05/26 05:27:52;;;;;;;4.75;1.00;;;17.20;99.90;;;;;;4153924;28;20041;-66
2021/05/26 05:29:54;;;;;;;2.88;0.80;;;17.10;99.90;;;;;;4155907;28;20531;-66
2021/05/26 05:31:55;;;;;;;5.75;1.15;;;16.90;99.90;;;;;;4155163;28;20041;-68
2021/05/26 05:33:56;;;;;;;4.28;1.58;;;16.70;99.90;;;;;;4155509;28;20030;-68
2021/05/26 05:35:57;;;;;;;4.18;0.95;;;16.80;99.90;;;;;;4154623;28;20041;-67
2021/05/26 05:37:58;;;;;;;4.68;1.27;;;16.70;99.90;;;;;;4155046;28;20033;-70
2021/05/26 05:40:00;;;;;;;3.10;1.48;;;16.60;99.90;;;;;;4155364;28;20029;-69
2021/05/26 05:42:01;;;;;;;5.63;1.52;;;16.40;99.90;;;;;;4155253;28;20091;-67
2021/05/26 05:44:02;;;;;;;3.00;1.00;;;16.10;99.90;;;;;;4155548;28;20032;-69
2021/05/26 05:46:04;;;;;;;7.40;1.88;;;16.00;99.90;;;;;;4154868;28;20053;-69
2021/05/26 05:48:05;;;;;;;11.60;2.15;;;15.90;99.90;;;;;;4155377;28;20076;-70
2021/05/26 05:50:14;;;;;;;3.38;1.52;;;16.00;99.90;;;;;;4154551;28;20079;-68
2021/05/26 05:52:15;;;;;;;3.55;0.95;;;16.10;99.90;;;;;;4155539;28;20034;-67
2021/05/26 05:54:16;;;;;;;3.83;1.27;;;16.30;99.90;;;;;;4154804;28;20021;-68
2021/05/26 05:56:18;;;;;;;4.55;1.75;;;16.50;99.90;;;;;;4155747;28;20018;-63
2021/05/26 05:58:26;;;;;;;3.17;1.30;;;16.50;99.90;;;;;;4154577;28;20111;-68
2021/05/26 06:00:28;;;;;;;4.57;0.88;;;16.60;99.90;;;;;;4155936;28;20088;-68
2021/05/26 06:02:29;;;;;;;5.05;1.10;;;16.70;99.90;;;;;;4154945;28;20034;-69
2021/05/26 06:04:30;;;;;;;6.00;2.60;;;16.70;99.90;;;;;;4155576;28;20029;-69
2021/05/26 06:06:31;;;;;;;6.18;2.05;;;16.90;99.90;;;;;;4154758;28;20506;-66
2021/05/26 06:08:32;;;;;;;7.32;3.50;;;16.80;99.90;;;;;;4155143;28;20091;-67
2021/05/26 06:10:33;;;;;;;3.95;1.35;;;16.70;99.90;;;;;;4155158;28;20595;-67
2021/05/26 06:12:34;;;;;;;5.20;2.05;;;16.60;99.90;;;;;;4153243;28;20481;-68
2021/05/26 06:14:35;;;;;;;5.95;1.45;;;16.50;99.90;;;;;;4154994;28;20049;-64
2021/05/26 06:16:38;;;;;;;9.27;2.05;;;16.80;99.90;;;;;;4154658;28;20112;-69
2021/05/26 06:18:39;;;;;;;3.78;1.98;;;16.90;99.90;;;;;;4154819;28;20071;-67
2021/05/26 06:20:40;;;;;;;2.72;1.30;;;17.10;99.90;;;;;;4154521;28;20228;-70
2021/05/26 06:22:41;;;;;;;7.80;1.58;;;17.40;99.90;;;;;;4155840;28;20041;-67
2021/05/26 06:24:42;;;;;;;5.10;1.17;;;18.10;99.90;;;;;;4153647;28;20038;-69
2021/05/26 06:26:44;;;;;;;4.03;1.10;;;18.70;99.90;;;;;;4155680;28;20093;-67
2021/05/26 06:28:45;;;;;;;3.42;0.70;;;19.30;98.50;;;;;;4154011;28;20037;-70
2021/05/26 06:30:47;;;;;;;3.78;0.73;;;19.80;96.90;;;;;;4155256;28;20492;-69
2021/05/26 06:32:48;;;;;;;1.70;0.60;;;20.20;95.20;;;;;;4155025;28;20041;-68
2021/05/26 06:34:50;;;;;;;4.13;0.80;;;20.70;93.90;;;;;;4154691;28;20033;-68
2021/05/26 06:36:52;;;;;;;4.78;0.68;;;21.30;92.00;;;;;;4154483;28;20088;-68
2021/05/26 06:38:53;;;;;;;6.82;0.47;;;21.90;90.00;;;;;;4155377;28;20041;-69
2021/05/26 06:40:54;;;;;;;1.30;0.65;;;21.90;86.60;;;;;;4157793;28;20468;-67
2021/05/26 06:42:55;;;;;;;4.80;0.70;;;22.20;85.00;;;;;;4157578;28;20063;-68
2021/05/26 06:44:56;;;;;;;4.05;1.13;;;22.50;82.70;;;;;;4157764;28;20033;-68
2021/05/26 06:46:57;;;;;;;4.03;1.00;;;22.40;80.30;;;;;;4157389;28;20033;-69
2021/05/26 06:48:58;;;;;;;2.17;0.80;;;22.10;80.50;;;;;;4157790;28;20119;-65
2021/05/26 06:51:00;;;;;;;5.63;0.80;;;22.10;79.50;;;;;;4156016;28;20099;-68
2021/05/26 06:53:01;;;;;;;5.10;0.60;;;22.10;79.50;;;;;;4157896;28;20443;-69
2021/05/26 06:55:03;;;;;;;0.90;0.60;;;22.20;78.60;;;;;;4157011;28;20099;-67
2021/05/26 06:57:04;;;;;;;1.77;0.90;;;22.30;78.00;;;;;;4157351;28;20562;-68
2021/05/26 06:59:06;;;;;;;4.30;0.60;;;22.70;76.80;;;;;;4156855;28;20049;-68
2021/05/26 07:01:07;;;;;;;2.70;1.00;;;22.80;75.10;;;;;;4158307;28;20456;-68
2021/05/26 07:03:09;;;;;;;5.97;1.63;;;22.60;74.60;;;;;;4157447;28;20489;-68
2021/05/26 07:05:11;;;;;;;2.80;0.73;;;22.50;74.20;;;;;;4156287;28;20049;-68
2021/05/26 07:07:12;;;;;;;2.08;0.73;;;22.40;73.90;;;;;;4157011;28;20435;-68
2021/05/26 07:09:13;;;;;;;5.35;1.45;;;22.10;72.00;;;;;;4157565;28;20083;-65
2021/05/26 07:11:14;;;;;;;0.90;0.80;;;20.90;73.90;;;;;;4156865;28;20127;-65
2021/05/26 07:13:16;;;;;;;2.40;0.50;;;20.40;75.60;;;;;;4157262;28;20049;-66
2021/05/26 07:15:18;;;;;;;2.22;0.80;;;20.70;76.70;;;;;;4157632;28;20490;-64
2021/05/26 07:17:19;;;;;;;4.10;0.88;;;21.00;76.10;;;;;;4156913;28;20047;-66
2021/05/26 07:19:20;;;;;;;2.15;0.40;;;21.00;75.10;;;;;;4157746;28;20068;-68
2021/05/26 07:21:22;;;;;;;2.47;0.70;;;20.80;75.30;;;;;;4156875;28;20057;-67
2021/05/26 07:23:24;;;;;;;3.03;0.98;;;20.80;76.30;;;;;;4157548;28;20034;-67
2021/05/26 07:25:25;;;;;;;2.78;0.93;;;20.50;75.40;;;;;;4156214;28;20045;-66
2021/05/26 07:27:26;;;;;;;2.22;0.55;;;20.60;76.30;;;;;;4157656;28;20041;-69
2021/05/26 07:29:27;;;;;;;1.95;0.60;;;20.50;74.80;;;;;;4156384;28;20037;-65
2021/05/26 07:31:29;;;;;;;0.40;0.40;;;20.80;75.50;;;;;;4158161;28;20408;-65
2021/05/26 07:33:30;;;;;;;1.05;0.40;;;21.10;74.60;;;;;;4156884;28;20033;-69
2021/05/26 07:35:32;;;;;;;1.52;0.95;;;21.40;73.70;;;;;;4157394;28;20095;-68
2021/05/26 07:37:33;;;;;;;4.05;0.40;;;21.40;72.60;;;;;;4156559;28;20080;-70
2021/05/26 07:39:36;;;;;;;2.63;1.08;;;20.70;68.80;;;;;;4156635;28;20441;-68
2021/05/26 07:41:37;;;;;;;4.07;0.90;;;20.20;69.50;;;;;;4157034;28;20072;-68
2021/05/26 07:43:38;;;;;;;1.90;0.60;;;19.90;70.20;;;;;;4156665;28;20840;-69
2021/05/26 07:45:39;;;;;;;2.53;0.68;;;19.80;70.70;;;;;;4156978;28;20060;-67
2021/05/26 07:47:40;;;;;;;3.28;0.30;;;19.70;71.30;;;;;;4155536;28;20049;-66
2021/05/26 07:49:41;;;;;;;1.63;0.50;;;19.90;72.00;;;;;;4157220;28;20497;-66
2021/05/26 07:51:49;;;;;;;0.38;0.20;;;20.10;69.70;;;;;;4154956;28;20103;-66
2021/05/26 07:53:50;;;;;;;2.70;0.55;;;20.10;68.40;;;;;;4155949;28;20042;-65
2021/05/26 07:55:51;;;;;;;0.20;0.17;;;20.40;69.10;;;;;;4156471;28;20033;-69
2021/05/26 07:57:52;;;;;;;3.10;0.60;;;20.80;69.10;;;;;;4156999;28;20075;-68
2021/05/26 07:59:53;;;;;;;1.02;0.60;;;21.20;68.40;;;;;;4155932;28;20033;-67
2021/05/26 08:01:55;;;;;;;0.85;0.55;;;21.40;68.00;;;;;;4157686;28;20037;-68
2021/05/26 08:03:56;;;;;;;1.67;1.05;;;21.50;68.40;;;;;;4156103;28;20087;-67
2021/05/26 08:05:57;;;;;;;0.85;0.30;;;21.50;68.50;;;;;;4157136;28;20037;-67
2021/05/26 08:08:01;;;;;;;1.98;1.10;;;21.60;68.00;;;;;;4156082;28;20769;-68
2021/05/26 08:10:05;;;;;;;1.35;0.32;;;21.20;68.60;;;;;;4156430;28;20045;-69
2021/05/26 08:12:08;;;;;;;0.57;0.20;;;21.30;69.40;;;;;;4154532;28;20068;-64
2021/05/26 08:14:10;;;;;;;1.10;0.28;;;21.50;69.90;;;;;;4156496;28;20018;-68
2021/05/26 08:16:11;;;;;;;2.80;0.70;;;21.70;69.30;;;;;;4155755;28;20041;-67
2021/05/26 08:18:12;;;;;;;1.42;0.30;;;21.80;68.90;;;;;;4155177;28;20038;-64
2021/05/26 08:20:14;;;;;;;4.15;0.77;;;21.40;69.80;;;;;;4156850;28;20056;-64
2021/05/26 08:22:15;;;;;;;2.78;0.45;;;21.20;70.10;;;;;;4153814;28;20095;-66
2021/05/26 08:24:16;;;;;;;5.95;0.80;;;20.60;71.50;;;;;;4156312;28;20041;-62
2021/05/26 08:26:21;;;;;;;6.05;0.68;;;20.30;72.90;;;;;;4154186;28;20558;-65
2021/05/26 08:28:22;;;;;;;3.85;0.90;;;20.00;73.50;;;;;;4156089;28;20119;-68
2021/05/26 08:30:24;;;;;;;1.65;0.57;;;20.10;74.50;;;;;;4155448;28;20021;-64
2021/05/26 08:32:25;;;;;;;1.63;0.38;;;20.20;74.40;;;;;;4155544;28;20045;-65
2021/05/26 08:34:26;;;;;;;1.05;0.40;;;20.30;73.60;;;;;;4155556;28;20033;-68
2021/05/26 08:36:27;;;;;;;2.97;0.55;;;20.60;73.20;;;;;;4156488;28;20091;-67
2021/05/26 08:38:28;;;;;;;0.85;0.60;;;20.80;72.90;;;;;;4155321;28;20662;-70
2021/05/26 08:40:30;;;;;;;2.33;0.50;;;21.00;72.10;;;;;;4156258;28;20095;-65
2021/05/26 08:42:32;;;;;;;3.03;0.60;;;21.20;71.10;;;;;;4155118;28;20425;-69
2021/05/26 08:44:33;;;;;;;1.23;0.40;;;21.00;71.00;;;;;;4156968;28;20064;-68
2021/05/26 08:46:36;;;;;;;0.50;0.38;;;20.50;70.90;;;;;;4155678;28;20929;-66
2021/05/26 08:48:37;;;;;;;8.27;1.67;;;20.30;72.30;;;;;;4155936;28;20088;-68
2021/05/26 08:50:44;;;;;;;1.33;0.60;;;19.90;76.00;;;;;;4155752;28;20075;-67
2021/05/26 08:52:46;;;;;;;9.20;2.03;;;19.30;78.90;;;;;;4155427;28;20449;-68
2021/05/26 08:54:47;;;;;;;7.18;1.55;;;19.00;79.30;;;;;;4155733;28;20029;-65
2021/05/26 08:56:49;;;;;;;4.75;1.73;;;19.10;77.80;;;;;;4155397;28;20083;-66
2021/05/26 08:58:50;;;;;;;2.35;0.60;;;19.20;77.00;;;;;;4156238;28;20039;-67
2021/05/26 09:00:51;;;;;;;0.80;0.35;;;19.50;76.20;;;;;;4155335;28;20084;-68
2021/05/26 09:02:52;;;;;;;0.82;0.30;;;19.70;75.50;;;;;;4156230;28;20084;-65
2021/05/26 09:04:53;;;;;;;11.05;1.55;;;19.60;74.50;;;;;;4155099;28;20029;-64
2021/05/26 09:07:29;;;;;;;4.68;1.20;;;19.60;74.20;;;;;;4156106;28;20154;-68
2021/05/26 09:09:45;;;;;;;2.67;0.93;;;19.90;74.50;;;;;;4144088;28;20509;-64
2021/05/26 09:11:46;;;;;;;2.28;0.75;;;19.90;74.20;;;;;;4155813;28;20079;-68
2021/05/26 09:13:48;;;;;;;0.80;0.55;;;19.90;74.80;;;;;;4155327;28;20075;-64
2021/05/26 09:15:49;;;;;;;0.68;0.30;;;20.10;74.50;;;;;;4154847;28;20099;-64
2021/05/26 09:18:00;;;;;;;4.80;0.85;;;19.90;73.50;;;;;;4154749;28;20041;-64
2021/05/26 09:20:26;;;;;;;3.28;0.82;;;19.80;73.20;;;;;;4154358;28;20049;-66
2021/05/26 09:22:27;;;;;;;1.40;1.05;;;19.80;75.00;;;;;;4155144;28;20042;-64
2021/05/26 09:24:30;;;;;;;1.23;0.80;;;19.80;76.90;;;;;;4156146;28;20091;-63
2021/05/26 09:26:49;;;;;;;1.63;0.70;;;19.70;77.70;;;;;;4154881;28;20092;-66
2021/05/26 09:29:04;;;;;;;0.85;0.52;;;19.60;80.10;;;;;;4155807;28;20033;-68
2021/05/26 09:31:10;;;;;;;2.40;0.85;;;19.60;79.80;;;;;;4155064;28;20075;-69
2021/05/26 09:33:24;;;;;;;2.35;0.65;;;19.60;80.70;;;;;;4155599;28;20029;-65
2021/05/26 09:35:25;;;;;;;2.28;0.82;;;19.50;80.30;;;;;;4154850;28;20041;-68
2021/05/26 09:37:35;;;;;;;1.05;0.90;;;19.50;80.90;;;;;;4155807;28;20453;-66
2021/05/26 09:39:52;;;;;;;1.27;0.80;;;19.40;81.70;;;;;;4154139;28;20107;-68
2021/05/26 09:41:54;;;;;;;2.03;0.65;;;19.40;81.00;;;;;;4155311;28;20834;-67
2021/05/26 09:44:10;;;;;;;2.45;0.55;;;19.40;81.30;;;;;;4153691;28;20041;-69
2021/05/26 09:46:21;;;;;;;2.13;0.93;;;19.70;81.90;;;;;;4155659;28;20123;-70
2021/05/26 09:48:22;;;;;;;1.60;0.68;;;20.10;80.80;;;;;;4154005;28;20046;-66
2021/05/26 09:50:34;;;;;;;2.17;0.55;;;20.40;80.30;;;;;;4154108;28;20822;-66
2021/05/26 09:52:54;;;;;;;1.25;0.65;;;20.70;79.80;;;;;;4154786;28;20034;-65
2021/05/26 09:54:55;;;;;;;1.38;0.70;;;21.00;79.60;;;;;;4153532;28;20474;-68
2021/05/26 09:57:02;;;;;;;5.25;0.60;;;20.90;79.50;;;;;;4155053;28;20038;-66
2021/05/26 09:59:07;;;;;;;6.38;0.65;;;20.70;78.70;;;;;;4155866;28;20038;-69
2021/05/26 10:01:10;;;;;;;1.65;0.40;;;20.50;79.40;;;;;;4154600;28;20087;-64
2021/05/26 10:03:12;;;;;;;1.52;0.73;;;20.60;79.50;;;;;;4155522;28;20095;-69
2021/05/26 10:05:19;;;;;;;1.63;0.50;;;20.70;78.40;;;;;;4154076;28;20080;-64
2021/05/26 10:07:21;;;;;;;0.98;0.35;;;20.80;78.20;;;;;;4155107;28;20598;-62
2021/05/26 10:09:25;;;;;;;5.07;0.73;;;20.80;78.30;;;;;;4154450;28;20087;-68
2021/05/26 10:11:32;;;;;;;1.52;0.60;;;20.80;77.50;;;;;;4153496;28;20054;-68
2021/05/26 10:13:33;;;;;;;4.65;0.93;;;20.80;77.10;;;;;;4154430;28;20041;-65
2021/05/26 10:15:34;;;;;;;2.45;0.57;;;20.80;77.90;;;;;;4158482;28;20402;-67
2021/05/26 10:17:39;;;;;;;1.15;0.40;;;20.70;77.60;;;;;;4157581;28;20481;-65
2021/05/26 10:19:40;;;;;;;3.50;0.88;;;20.70;78.20;;;;;;4158404;28;20029;-69
2021/05/26 10:21:41;;;;;;;4.68;0.63;;;20.70;78.20;;;;;;4157311;28;20379;-68
2021/05/26 10:23:43;;;;;;;3.67;0.57;;;20.70;78.70;;;;;;4158036;28;20029;-68
2021/05/26 10:25:46;;;;;;;0.90;0.50;;;20.60;78.90;;;;;;4157199;28;20072;-65
2021/05/26 10:27:52;;;;;;;3.70;0.68;;;20.40;80.60;;;;;;4157481;28;20523;-67
2021/05/26 10:29:58;;;;;;;1.65;0.50;;;20.40;79.90;;;;;;4157831;28;20033;-69
2021/05/26 10:32:04;;;;;;;1.17;0.70;;;20.30;79.40;;;;;;4157922;28;20087;-68
2021/05/26 10:34:06;;;;;;;0.90;0.55;;;20.10;81.10;;;;;;4157798;28;20104;-63
2021/05/26 10:36:11;;;;;;;1.83;0.38;;;19.90;82.30;;;;;;4157304;28;20084;-66
2021/05/26 10:38:12;;;;;;;1.90;0.90;;;19.80;83.60;;;;;;4158580;28;20107;-67